Time;durP1;ratioP1;P1;durP2;ratioP2;P2;SDS_P1;SDS_P2;PMS_P1;PMS_P2;Temp;Humidity;BMP_temperature;BMP_pressure;BME280_temperature;BME280_humidity;BME280_pressure;Samples;Min_cycle;Max_cycle;Signal;HPM_P1;HPM_P2
2022/02/27 00:01:56;;;;;;;14.65;5.30;;;3.60;85.10;;;;;;6124741;22;100946;-72
2022/02/27 00:04:24;;;;;;;10.45;4.47;;;3.50;85.40;;;;;;6151389;22;98443;-72
2022/02/27 00:06:51;;;;;;;15.07;4.85;;;3.50;85.60;;;;;;6151954;22;98918;-72
2022/02/27 00:09:18;;;;;;;12.93;5.18;;;3.50;85.80;;;;;;6151276;22;99413;-71
2022/02/27 00:11:48;;;;;;;12.18;5.90;;;3.40;86.10;;;;;;6124813;22;101299;-72
2022/02/27 00:14:15;;;;;;;13.70;5.65;;;3.40;86.20;;;;;;6151948;22;98444;-72
2022/02/27 00:16:42;;;;;;;18.05;5.85;;;3.40;86.30;;;;;;6152360;22;98108;-72
2022/02/27 00:19:12;;;;;;;21.65;6.03;;;3.30;86.30;;;;;;6151703;22;99595;-72
2022/02/27 00:21:39;;;;;;;11.95;5.50;;;3.30;86.60;;;;;;6151883;22;99056;-75
2022/02/27 00:24:07;;;;;;;10.90;4.82;;;3.30;86.70;;;;;;6151344;22;99114;-74
2022/02/27 00:26:34;;;;;;;13.88;4.88;;;3.30;86.70;;;;;;6151840;22;98484;-75
2022/02/27 00:29:02;;;;;;;13.88;5.60;;;3.20;86.90;;;;;;6124752;22;102066;-74
2022/02/27 00:31:29;;;;;;;17.80;5.40;;;3.20;87.00;;;;;;6125076;22;99030;-74
2022/02/27 00:33:56;;;;;;;16.20;5.60;;;3.20;87.00;;;;;;6125776;22;98533;-74
2022/02/27 00:36:23;;;;;;;12.70;4.88;;;3.20;87.20;;;;;;6151776;22;98472;-72
2022/02/27 00:38:50;;;;;;;11.77;4.82;;;3.10;87.30;;;;;;6124499;22;101865;-74
2022/02/27 00:41:19;;;;;;;12.48;4.57;;;3.10;87.40;;;;;;6124605;22;102199;-74
2022/02/27 00:43:46;;;;;;;11.90;5.43;;;3.10;87.40;;;;;;6152122;22;98465;-74
2022/02/27 00:46:14;;;;;;;12.55;4.90;;;3.10;87.50;;;;;;6151893;22;98501;-74
2022/02/27 00:48:41;;;;;;;11.93;5.40;;;3.10;87.60;;;;;;6099716;22;103382;-72
2022/02/27 00:51:08;;;;;;;12.98;3.97;;;3.10;87.60;;;;;;6151464;22;99459;-72
2022/02/27 00:53:35;;;;;;;10.63;4.80;;;3.10;87.90;;;;;;6125343;22;98547;-72
2022/02/27 00:56:03;;;;;;;12.52;4.70;;;3.10;87.90;;;;;;6124835;22;98554;-72
2022/02/27 00:58:31;;;;;;;16.38;5.55;;;3.10;87.90;;;;;;6124051;22;101933;-72
2022/02/27 01:00:59;;;;;;;13.40;4.78;;;3.10;88.00;;;;;;6124404;22;100183;-72
2022/02/27 01:03:31;;;;;;;13.57;4.35;;;3.10;88.00;;;;;;6124988;22;98464;-72
2022/02/27 01:05:58;;;;;;;14.60;5.60;;;3.10;88.00;;;;;;6125579;22;97868;-71
2022/02/27 01:08:26;;;;;;;12.68;5.13;;;3.10;88.00;;;;;;6100373;22;99143;-71
2022/02/27 01:10:53;;;;;;;13.85;4.68;;;3.10;87.90;;;;;;6124566;22;101650;-71
2022/02/27 01:13:20;;;;;;;11.00;4.60;;;3.10;88.00;;;;;;6125102;22;99252;-72
2022/02/27 01:15:47;;;;;;;9.70;5.03;;;3.10;88.10;;;;;;6124685;22;98838;-71
2022/02/27 01:18:14;;;;;;;12.60;4.50;;;3.10;88.20;;;;;;6151059;22;99284;-72
2022/02/27 01:20:41;;;;;;;16.23;5.38;;;3.10;88.30;;;;;;6151002;22;99182;-71
2022/02/27 01:23:10;;;;;;;14.77;5.72;;;3.10;88.20;;;;;;6124910;22;98587;-72
2022/02/27 01:25:37;;;;;;;16.73;5.03;;;3.00;88.20;;;;;;6151497;22;98482;-72
2022/02/27 01:28:05;;;;;;;11.00;5.13;;;3.10;88.20;;;;;;6124228;22;101894;-72
2022/02/27 01:30:32;;;;;;;15.57;5.05;;;3.10;88.20;;;;;;6124769;22;101776;-72
2022/02/27 01:33:00;;;;;;;7.15;5.25;;;3.10;88.20;;;;;;6100766;22;98535;-71
2022/02/27 01:35:27;;;;;;;15.02;4.68;;;3.10;88.20;;;;;;6100003;22;98590;-74
2022/02/27 01:37:54;;;;;;;11.23;4.95;;;3.10;88.00;;;;;;6123855;22;102893;-74
2022/02/27 01:40:23;;;;;;;15.27;4.63;;;3.10;88.10;;;;;;6123861;22;102403;-74
2022/02/27 01:42:50;;;;;;;13.00;5.10;;;3.10;88.10;;;;;;6124731;22;98468;-72
2022/02/27 01:45:17;;;;;;;17.38;5.65;;;3.00;88.00;;;;;;6151642;22;98483;-72
2022/02/27 01:47:44;;;;;;;13.52;5.28;;;3.10;88.10;;;;;;6150777;22;99164;-72
2022/02/27 01:50:11;;;;;;;19.52;5.38;;;3.00;88.10;;;;;;6124154;22;101563;-74
2022/02/27 01:52:39;;;;;;;14.45;5.20;;;3.00;88.10;;;;;;6125501;22;98849;-74
2022/02/27 01:55:08;;;;;;;13.23;5.78;;;3.00;88.00;;;;;;6152198;22;98037;-74
2022/02/27 01:57:40;;;;;;;15.80;6.65;;;3.00;88.00;;;;;;6124115;22;101930;-74
2022/02/27 02:00:08;;;;;;;18.83;5.68;;;3.00;88.10;;;;;;6099558;22;101425;-74
2022/02/27 02:02:45;;;;;;;12.00;5.60;;;3.00;88.00;;;;;;6150921;22;99124;-74
2022/02/27 02:05:14;;;;;;;13.35;5.18;;;3.00;88.10;;;;;;6150100;22;98864;-74
2022/02/27 02:07:45;;;;;;;14.90;5.45;;;3.00;87.90;;;;;;6123873;22;100987;-74
2022/02/27 02:10:12;;;;;;;11.32;5.10;;;3.00;88.00;;;;;;6123994;22;101362;-74
2022/02/27 02:12:43;;;;;;;12.68;5.90;;;3.00;88.10;;;;;;6124243;22;98580;-71
2022/02/27 02:15:12;;;;;;;10.05;5.22;;;3.00;88.10;;;;;;6124314;22;98935;-72
2022/02/27 02:17:39;;;;;;;16.83;6.32;;;3.00;88.10;;;;;;6118450;23;101676;-71
2022/02/27 02:20:07;;;;;;;13.88;6.00;;;3.00;88.00;;;;;;6119548;23;102111;-71
2022/02/27 02:22:45;;;;;;;13.70;5.85;;;3.00;88.20;;;;;;6097057;23;99212;-72
2022/02/27 02:25:12;;;;;;;9.77;5.68;;;3.00;88.30;;;;;;6119563;23;98522;-72
2022/02/27 02:27:40;;;;;;;10.95;5.10;;;3.00;88.20;;;;;;6118263;23;102171;-72
2022/02/27 02:30:09;;;;;;;14.85;6.28;;;2.90;88.20;;;;;;6119027;23;102438;-71
2022/02/27 02:32:57;;;;;;;15.57;6.65;;;2.90;88.30;;;;;;6094848;23;98582;-71
2022/02/27 02:35:28;;;;;;;10.98;6.22;;;2.90;88.50;;;;;;6121368;22;98437;-71
2022/02/27 02:37:55;;;;;;;17.10;5.93;;;2.90;88.70;;;;;;6094413;23;101455;-71
2022/02/27 02:40:24;;;;;;;12.48;6.30;;;2.90;88.70;;;;;;6118847;23;99978;-72
2022/02/27 02:42:55;;;;;;;13.68;6.03;;;2.90;88.80;;;;;;6144573;22;98975;-72
2022/02/27 02:45:22;;;;;;;16.30;6.95;;;2.80;88.80;;;;;;6119861;23;97845;-71
2022/02/27 02:47:51;;;;;;;11.68;5.88;;;2.80;88.90;;;;;;6094480;23;101825;-72
2022/02/27 02:50:20;;;;;;;12.88;5.30;;;2.80;89.00;;;;;;6120018;23;101602;-72
2022/02/27 02:52:47;;;;;;;16.08;5.95;;;2.80;89.00;;;;;;6120140;23;99599;-71
2022/02/27 02:55:17;;;;;;;11.93;5.63;;;2.80;89.00;;;;;;6120770;23;98483;-73
2022/02/27 02:57:44;;;;;;;19.02;6.18;;;2.80;89.10;;;;;;6120611;23;100569;-74
2022/02/27 03:00:12;;;;;;;15.18;6.03;;;2.80;89.00;;;;;;6122176;23;99000;-74
2022/02/27 03:02:40;;;;;;;13.23;5.50;;;2.80;89.00;;;;;;6122507;22;98403;-74
2022/02/27 03:05:08;;;;;;;17.05;6.00;;;2.80;89.10;;;;;;6120194;23;102097;-74
2022/02/27 03:07:36;;;;;;;16.92;6.65;;;2.70;89.20;;;;;;6095906;23;99179;-74
2022/02/27 03:10:05;;;;;;;12.15;5.95;;;2.70;89.20;;;;;;6121084;23;98988;-74
2022/02/27 03:12:32;;;;;;;15.10;6.68;;;2.80;89.30;;;;;;6122718;23;98359;-74
2022/02/27 03:14:59;;;;;;;12.82;6.68;;;2.80;89.20;;;;;;6122381;23;98950;-74
2022/02/27 03:17:26;;;;;;;16.63;6.63;;;2.80;89.20;;;;;;6134295;22;99915;-74
2022/02/27 03:19:53;;;;;;;15.02;7.10;;;2.70;89.20;;;;;;6150836;22;99708;-74
2022/02/27 03:22:21;;;;;;;14.45;6.07;;;2.70;89.20;;;;;;6152511;22;98475;-74
2022/02/27 03:24:48;;;;;;;18.05;6.65;;;2.70;89.40;;;;;;6125894;22;98598;-74
2022/02/27 03:27:14;;;;;;;15.30;5.97;;;2.70;89.40;;;;;;6100834;22;99326;-74
2022/02/27 03:29:41;;;;;;;15.98;7.22;;;2.70;89.50;;;;;;6150969;22;116431;-74
2022/02/27 03:32:08;;;;;;;18.08;7.07;;;2.70;89.50;;;;;;6125610;22;98636;-74
2022/02/27 03:34:36;;;;;;;15.43;7.10;;;2.60;89.60;;;;;;6125839;22;98048;-74
2022/02/27 03:37:04;;;;;;;12.20;7.05;;;2.60;89.70;;;;;;6125189;22;99093;-74
2022/02/27 03:39:32;;;;;;;15.15;6.95;;;2.60;89.70;;;;;;6101292;22;99533;-74
2022/02/27 03:41:59;;;;;;;16.10;6.90;;;2.60;89.90;;;;;;6124946;22;99242;-74
2022/02/27 03:44:26;;;;;;;13.85;7.20;;;2.60;89.90;;;;;;6125664;22;98514;-74
2022/02/27 03:46:53;;;;;;;13.93;7.05;;;2.50;89.90;;;;;;6151440;22;99290;-74
2022/02/27 03:49:20;;;;;;;20.38;7.60;;;2.60;89.90;;;;;;6151939;22;98876;-74
2022/02/27 03:51:47;;;;;;;19.50;7.93;;;2.50;90.00;;;;;;6125646;22;98564;-74
2022/02/27 03:54:17;;;;;;;17.55;7.85;;;2.50;90.00;;;;;;6125511;22;98453;-74
2022/02/27 03:56:44;;;;;;;15.13;7.35;;;2.50;90.00;;;;;;6125021;22;99322;-74
2022/02/27 03:59:11;;;;;;;15.65;7.60;;;2.50;90.10;;;;;;6124722;22;101594;-74
2022/02/27 04:01:39;;;;;;;18.40;8.07;;;2.50;90.10;;;;;;6125805;22;98497;-74
2022/02/27 04:04:06;;;;;;;13.95;8.02;;;2.50;90.10;;;;;;6124838;22;98528;-74
2022/02/27 04:06:33;;;;;;;15.15;8.25;;;2.40;90.10;;;;;;6099110;22;113969;-74
2022/02/27 04:09:00;;;;;;;13.18;8.32;;;2.40;90.20;;;;;;6151381;22;99684;-74
2022/02/27 04:11:27;;;;;;;18.60;8.43;;;2.40;90.20;;;;;;6125781;22;98592;-74
2022/02/27 04:13:54;;;;;;;19.85;9.45;;;2.40;90.30;;;;;;6125205;22;98585;-74
2022/02/27 04:16:23;;;;;;;14.90;8.05;;;2.40;90.30;;;;;;6151685;22;99372;-74
2022/02/27 04:18:50;;;;;;;18.02;9.15;;;2.30;90.30;;;;;;6151438;22;98960;-74
2022/02/27 04:21:17;;;;;;;17.40;8.55;;;2.40;90.40;;;;;;6152423;22;98460;-74
2022/02/27 04:23:44;;;;;;;16.08;9.13;;;2.30;90.30;;;;;;6126175;22;97709;-74
2022/02/27 04:26:11;;;;;;;19.65;9.32;;;2.30;90.40;;;;;;6151679;22;99270;-74
2022/02/27 04:28:38;;;;;;;15.85;8.68;;;2.30;90.40;;;;;;6151637;22;99083;-74
2022/02/27 04:31:05;;;;;;;13.93;8.35;;;2.30;90.40;;;;;;6151422;22;99204;-74
2022/02/27 04:33:32;;;;;;;18.48;9.25;;;2.30;90.50;;;;;;6152323;22;98445;-74
2022/02/27 04:35:59;;;;;;;15.18;8.57;;;2.20;90.40;;;;;;6125028;22;99705;-74
2022/02/27 04:38:28;;;;;;;18.15;8.77;;;2.20;90.50;;;;;;6151655;22;98907;-74
2022/02/27 04:40:55;;;;;;;21.52;10.27;;;2.20;90.50;;;;;;6100592;22;98544;-74
2022/02/27 04:43:22;;;;;;;21.02;9.80;;;2.20;90.50;;;;;;6151564;22;98528;-74
2022/02/27 04:45:49;;;;;;;22.02;9.23;;;2.20;90.50;;;;;;6151155;22;107350;-74
2022/02/27 04:48:17;;;;;;;22.40;10.05;;;2.10;90.60;;;;;;6152164;22;99109;-74
2022/02/27 04:50:44;;;;;;;19.25;9.73;;;2.10;90.60;;;;;;6151566;22;98523;-74
2022/02/27 04:53:12;;;;;;;19.15;10.55;;;2.10;90.60;;;;;;6151814;22;98477;-74
2022/02/27 04:55:39;;;;;;;20.80;9.98;;;2.10;90.70;;;;;;6150308;22;100018;-74
2022/02/27 04:58:06;;;;;;;17.13;10.07;;;2.10;90.70;;;;;;6124227;22;99676;-74
2022/02/27 05:00:35;;;;;;;18.13;10.07;;;2.00;90.70;;;;;;6151043;22;98573;-74
2022/02/27 05:03:02;;;;;;;19.65;9.98;;;2.00;90.80;;;;;;6151131;22;98546;-74
2022/02/27 05:05:29;;;;;;;16.73;9.77;;;2.00;90.80;;;;;;6124025;22;101771;-74
2022/02/27 05:07:56;;;;;;;18.73;9.43;;;2.00;90.80;;;;;;6124831;22;98989;-74
2022/02/27 05:10:23;;;;;;;15.27;9.95;;;2.00;90.80;;;;;;6125102;22;98565;-74
2022/02/27 05:12:51;;;;;;;19.95;10.02;;;2.00;90.80;;;;;;6152424;22;97705;-74
2022/02/27 05:15:17;;;;;;;15.80;9.27;;;1.90;90.90;;;;;;6124080;22;102673;-74
2022/02/27 05:17:44;;;;;;;19.48;11.23;;;1.90;90.90;;;;;;6151144;22;98874;-74
2022/02/27 05:20:13;;;;;;;27.10;10.43;;;1.90;90.90;;;;;;6123840;22;99267;-74
2022/02/27 05:22:43;;;;;;;20.40;9.65;;;1.90;90.90;;;;;;6151333;22;98446;-74
2022/02/27 05:25:11;;;;;;;17.48;9.57;;;1.90;91.00;;;;;;6150407;22;120991;-74
2022/02/27 05:27:38;;;;;;;20.45;10.25;;;1.90;91.00;;;;;;6151480;22;98787;-74
2022/02/27 05:30:07;;;;;;;21.20;10.00;;;1.90;91.00;;;;;;6151115;22;98497;-74
2022/02/27 05:32:34;;;;;;;17.42;9.77;;;1.90;91.00;;;;;;6124804;22;98413;-74
2022/02/27 05:35:01;;;;;;;24.83;10.85;;;1.90;91.00;;;;;;6151135;22;99279;-74
2022/02/27 05:37:28;;;;;;;18.73;10.07;;;1.80;91.00;;;;;;6124748;22;99136;-73
2022/02/27 05:39:55;;;;;;;17.85;10.45;;;1.80;91.30;;;;;;6124577;22;98511;-74
2022/02/27 05:42:22;;;;;;;18.15;9.65;;;1.80;91.10;;;;;;6099641;22;98523;-74
2022/02/27 05:44:49;;;;;;;23.80;10.13;;;1.70;91.10;;;;;;6123840;22;102460;-74
2022/02/27 05:47:17;;;;;;;20.70;10.45;;;1.70;91.20;;;;;;6123647;22;112522;-74
2022/02/27 05:49:44;;;;;;;16.95;9.88;;;1.80;91.20;;;;;;6124567;22;98645;-74
2022/02/27 05:52:11;;;;;;;16.42;9.38;;;1.70;91.20;;;;;;6124282;22;98666;-74
2022/02/27 05:54:38;;;;;;;14.82;9.50;;;1.70;91.20;;;;;;6124744;22;101741;-73
2022/02/27 05:57:05;;;;;;;27.58;12.32;;;1.70;91.20;;;;;;6124269;22;101654;-74
2022/02/27 05:59:32;;;;;;;20.27;10.45;;;1.70;91.20;;;;;;6099424;22;98489;-74
2022/02/27 06:01:59;;;;;;;20.20;10.43;;;1.70;91.20;;;;;;6124680;22;98702;-74
2022/02/27 06:04:26;;;;;;;17.13;10.15;;;1.70;91.30;;;;;;6150304;22;99023;-74
2022/02/27 06:06:54;;;;;;;24.65;10.68;;;1.70;91.30;;;;;;6099134;22;101749;-73
2022/02/27 06:09:21;;;;;;;17.98;9.60;;;1.70;91.30;;;;;;6150157;22;99187;-74
2022/02/27 06:11:49;;;;;;;20.35;10.98;;;1.70;91.30;;;;;;6099683;22;98655;-74
2022/02/27 06:14:15;;;;;;;19.98;10.27;;;1.70;91.30;;;;;;6122945;22;106630;-74
2022/02/27 06:16:42;;;;;;;27.10;11.07;;;1.70;91.30;;;;;;6123890;22;99058;-74
2022/02/27 06:19:10;;;;;;;19.70;9.40;;;1.60;91.30;;;;;;6123800;22;98515;-73
2022/02/27 06:21:37;;;;;;;17.52;10.27;;;1.60;91.40;;;;;;6151648;22;98844;-74
2022/02/27 06:24:04;;;;;;;22.38;9.77;;;1.60;91.40;;;;;;6151020;22;99115;-74
2022/02/27 06:26:32;;;;;;;15.85;9.70;;;1.60;91.40;;;;;;6101462;22;101632;-74
2022/02/27 06:29:01;;;;;;;18.17;9.88;;;1.60;91.30;;;;;;6152755;22;98469;-73
2022/02/27 06:31:28;;;;;;;20.98;10.43;;;1.60;91.40;;;;;;6152456;22;98539;-74
2022/02/27 06:33:55;;;;;;;17.35;10.45;;;1.60;91.40;;;;;;6099594;22;102476;-73
2022/02/27 06:36:22;;;;;;;20.00;9.25;;;1.60;91.40;;;;;;6151316;22;99813;-74
2022/02/27 06:38:49;;;;;;;24.15;10.25;;;1.60;91.40;;;;;;6125452;22;99783;-74
2022/02/27 06:41:16;;;;;;;15.15;9.18;;;1.70;91.40;;;;;;6152086;22;98444;-73
2022/02/27 06:43:43;;;;;;;16.23;8.75;;;1.70;91.40;;;;;;6125722;22;99244;-74
2022/02/27 06:46:11;;;;;;;18.63;9.70;;;1.70;91.40;;;;;;6151967;22;99009;-74
2022/02/27 06:48:38;;;;;;;11.68;8.50;;;1.80;91.50;;;;;;6126288;22;98431;-74
2022/02/27 06:51:09;;;;;;;19.27;9.20;;;1.80;91.40;;;;;;6152890;22;98081;-73
2022/02/27 06:53:38;;;;;;;16.17;7.45;;;1.90;91.40;;;;;;6125502;22;101826;-73
2022/02/27 06:56:06;;;;;;;16.67;9.35;;;2.00;91.30;;;;;;6100889;22;101538;-73
2022/02/27 06:58:33;;;;;;;14.18;7.70;;;2.10;91.30;;;;;;6125271;22;100405;-73
2022/02/27 07:01:00;;;;;;;19.40;7.80;;;2.10;91.20;;;;;;6126410;22;98992;-73
2022/02/27 07:03:27;;;;;;;12.90;7.15;;;2.30;91.10;;;;;;6125277;22;99292;-73
2022/02/27 07:05:54;;;;;;;15.23;7.00;;;2.30;91.00;;;;;;6125633;22;98973;-74
2022/02/27 07:08:21;;;;;;;13.05;7.50;;;2.50;91.00;;;;;;6125929;22;98472;-73
2022/02/27 07:10:48;;;;;;;13.27;7.03;;;2.60;90.70;;;;;;6126329;22;98873;-73
2022/02/27 07:13:15;;;;;;;12.20;7.45;;;2.70;90.40;;;;;;6151819;22;99156;-74
2022/02/27 07:15:42;;;;;;;14.55;6.95;;;2.80;90.20;;;;;;6125506;22;107002;-73
2022/02/27 07:18:09;;;;;;;14.82;7.32;;;2.90;90.10;;;;;;6152238;22;98421;-73
2022/02/27 07:20:36;;;;;;;16.50;7.10;;;3.00;89.90;;;;;;6125675;22;98896;-74
2022/02/27 07:23:03;;;;;;;11.55;6.93;;;3.10;89.50;;;;;;6151668;22;99795;-74
2022/02/27 07:25:30;;;;;;;11.60;7.57;;;3.10;89.20;;;;;;6151603;22;99676;-74
2022/02/27 07:27:57;;;;;;;11.00;6.82;;;3.30;88.90;;;;;;6152375;22;98445;-74
2022/02/27 07:30:24;;;;;;;11.35;7.47;;;3.40;88.70;;;;;;6125923;22;98786;-74
2022/02/27 07:32:51;;;;;;;7.40;6.35;;;3.60;88.20;;;;;;6100336;22;110227;-74
2022/02/27 07:35:19;;;;;;;10.70;6.40;;;3.70;87.40;;;;;;6101288;22;98988;-74
2022/02/27 07:37:46;;;;;;;16.25;6.75;;;3.90;86.90;;;;;;6152576;22;98666;-74
2022/02/27 07:40:13;;;;;;;10.82;6.60;;;4.10;85.60;;;;;;6126302;22;97839;-74
2022/02/27 07:42:40;;;;;;;11.15;5.97;;;4.20;85.60;;;;;;6151895;22;99107;-74
2022/02/27 07:45:08;;;;;;;10.88;6.05;;;4.30;85.20;;;;;;6151928;22;98984;-74
2022/02/27 07:47:36;;;;;;;11.25;6.05;;;4.50;84.90;;;;;;6151724;22;99201;-74
2022/02/27 07:50:04;;;;;;;12.50;6.95;;;4.50;84.50;;;;;;6152457;22;98462;-74
2022/02/27 07:52:31;;;;;;;13.00;8.73;;;4.60;84.40;;;;;;6125412;22;99261;-74
2022/02/27 07:54:58;;;;;;;16.05;10.68;;;4.70;84.10;;;;;;6125278;22;98936;-74
2022/02/27 07:57:26;;;;;;;25.88;23.70;;;4.70;83.80;;;;;;6124833;22;98449;-74
2022/02/27 07:59:53;;;;;;;23.13;21.45;;;4.70;83.90;;;;;;6124951;22;98819;-74
2022/02/27 08:02:20;;;;;;;16.70;14.98;;;4.80;83.30;;;;;;6124077;22;102136;-74
2022/02/27 08:04:47;;;;;;;10.07;8.20;;;5.10;82.90;;;;;;6151543;22;98929;-74
2022/02/27 08:07:14;;;;;;;17.45;15.90;;;5.30;82.20;;;;;;6152271;22;98416;-74
2022/02/27 08:09:40;;;;;;;29.02;26.95;;;5.40;81.00;;;;;;6124510;22;98629;-74
2022/02/27 08:12:08;;;;;;;27.75;25.65;;;5.50;80.60;;;;;;6150883;22;99970;-74
2022/02/27 08:14:35;;;;;;;29.00;27.08;;;5.70;80.00;;;;;;6150867;22;99832;-74
2022/02/27 08:17:02;;;;;;;27.45;25.33;;;5.80;79.40;;;;;;6151137;22;98489;-74
2022/02/27 08:19:32;;;;;;;37.63;35.55;;;6.10;79.60;;;;;;6124589;22;98590;-75
2022/02/27 08:21:59;;;;;;;35.42;33.15;;;6.50;78.40;;;;;;6124542;22;101872;-75
2022/02/27 08:24:26;;;;;;;1999.90;999.90;;;6.70;76.80;;;;;;6099707;22;101676;-74
2022/02/27 08:26:53;;;;;;;9.15;7.38;;;6.80;76.20;;;;;;6124287;22;98516;-75
2022/02/27 08:29:20;;;;;;;9.70;5.30;;;6.90;75.40;;;;;;6152425;22;97734;-74
2022/02/27 08:31:47;;;;;;;10.98;6.07;;;7.00;75.10;;;;;;6125655;22;99350;-75
2022/02/27 08:34:14;;;;;;;14.73;6.78;;;7.00;75.00;;;;;;6125846;22;98962;-75
2022/02/27 08:36:41;;;;;;;15.23;9.23;;;7.00;75.10;;;;;;6151135;22;100260;-75
2022/02/27 08:39:09;;;;;;;12.80;5.95;;;6.70;74.50;;;;;;6125598;22;98569;-74
2022/02/27 08:41:38;;;;;;;11.40;6.13;;;6.50;75.60;;;;;;6151981;22;99296;-75
2022/02/27 08:44:06;;;;;;;12.18;5.60;;;6.30;76.60;;;;;;6125754;22;99125;-74
2022/02/27 08:46:33;;;;;;;10.00;5.93;;;6.20;77.00;;;;;;6124956;22;98437;-74
2022/02/27 08:49:00;;;;;;;12.15;8.35;;;6.10;77.20;;;;;;6152152;22;98492;-74
2022/02/27 08:51:27;;;;;;;9.18;5.50;;;6.00;77.00;;;;;;6075723;22;101978;-74
2022/02/27 08:53:55;;;;;;;15.30;6.45;;;5.90;77.70;;;;;;6125631;22;99971;-75
2022/02/27 08:56:22;;;;;;;11.25;9.30;;;5.80;78.00;;;;;;6125716;22;98440;-74
2022/02/27 08:58:49;;;;;;;13.00;10.63;;;5.80;78.60;;;;;;6125836;22;98494;-75
2022/02/27 09:01:16;;;;;;;24.88;22.42;;;5.80;78.40;;;;;;6150496;22;99999;-75
2022/02/27 09:03:44;;;;;;;9.77;6.78;;;5.70;79.00;;;;;;6124676;22;99922;-75
2022/02/27 09:06:11;;;;;;;40.15;23.15;;;5.70;78.10;;;;;;6152269;22;98410;-74
2022/02/27 09:08:41;;;;;;;19.02;15.38;;;5.60;78.60;;;;;;6151092;22;98461;-74
2022/02/27 09:11:09;;;;;;;36.47;33.30;;;5.60;79.00;;;;;;6124506;22;99133;-75
2022/02/27 09:13:36;;;;;;;13.20;6.47;;;5.60;78.70;;;;;;6124667;22;98910;-74
2022/02/27 09:16:03;;;;;;;11.10;6.72;;;5.60;79.00;;;;;;6152129;22;98393;-74
2022/02/27 09:18:31;;;;;;;8.90;8.00;;;5.70;79.80;;;;;;6125739;22;97846;-76
2022/02/27 09:20:58;;;;;;;12.73;5.25;;;5.70;79.00;;;;;;6124594;22;101866;-75
2022/02/27 09:23:25;;;;;;;12.05;6.07;;;5.80;79.20;;;;;;6151503;22;99139;-74
2022/02/27 09:25:52;;;;;;;6.85;4.75;;;5.90;78.80;;;;;;6124814;22;99249;-74
2022/02/27 09:28:39;;;;;;;7.97;5.00;;;5.90;78.10;;;;;;6151443;22;98626;-75
2022/02/27 09:31:06;;;;;;;7.93;4.85;;;5.90;78.60;;;;;;6124750;22;107762;-74
2022/02/27 09:33:34;;;;;;;5.72;4.60;;;6.10;77.90;;;;;;6151124;22;98897;-74
2022/02/27 09:36:02;;;;;;;8.57;4.80;;;6.10;78.00;;;;;;6100634;22;98505;-74
2022/02/27 09:38:29;;;;;;;8.68;4.68;;;6.10;77.20;;;;;;6124779;22;98510;-74
2022/02/27 09:40:58;;;;;;;8.68;4.80;;;6.20;76.20;;;;;;6099996;22;102165;-74
2022/02/27 09:43:25;;;;;;;47.50;30.63;;;6.30;77.40;;;;;;6151955;22;98850;-74
2022/02/27 09:45:54;;;;;;;68.35;44.17;;;6.30;76.20;;;;;;6150913;22;98411;-75
2022/02/27 09:48:22;;;;;;;10.95;5.07;;;6.30;76.20;;;;;;6124668;22;99058;-74
2022/02/27 09:50:50;;;;;;;7.60;4.88;;;6.40;75.70;;;;;;6123603;22;102538;-74
2022/02/27 09:53:17;;;;;;;21.55;13.55;;;6.40;76.00;;;;;;6151399;22;99620;-74
2022/02/27 09:55:45;;;;;;;13.23;9.80;;;6.50;75.50;;;;;;6099435;22;98569;-75
2022/02/27 09:58:12;;;;;;;31.58;20.83;;;6.50;76.00;;;;;;6150818;22;98439;-74
2022/02/27 10:00:39;;;;;;;9.65;7.07;;;6.50;75.60;;;;;;6150310;22;99267;-74
2022/02/27 10:03:07;;;;;;;7.90;4.82;;;6.60;74.90;;;;;;6124260;22;101416;-75
2022/02/27 10:05:41;;;;;;;16.50;14.85;;;6.50;73.90;;;;;;6151462;22;98344;-75
2022/02/27 10:08:10;;;;;;;12.30;11.05;;;6.60;74.80;;;;;;6125175;22;97691;-74
2022/02/27 10:10:40;;;;;;;12.23;5.80;;;6.60;75.00;;;;;;6123013;22;101865;-75
2022/02/27 10:13:07;;;;;;;7.70;6.00;;;6.70;75.10;;;;;;6124604;22;101485;-75
2022/02/27 10:15:35;;;;;;;8.10;6.05;;;6.80;74.40;;;;;;6124449;22;99181;-74
2022/02/27 10:18:15;;;;;;;11.65;5.13;;;6.90;74.70;;;;;;6150686;22;98478;-75
2022/02/27 10:20:42;;;;;;;10.57;6.57;;;7.00;74.00;;;;;;6124246;22;101899;-75
2022/02/27 10:23:09;;;;;;;9.15;6.80;;;7.00;74.20;;;;;;6100198;22;99139;-75
2022/02/27 10:25:39;;;;;;;8.88;4.88;;;7.10;73.50;;;;;;6151199;22;98498;-75
2022/02/27 10:28:07;;;;;;;10.93;6.40;;;7.10;72.60;;;;;;6151489;22;98478;-74
2022/02/27 10:30:38;;;;;;;8.02;5.03;;;7.20;73.10;;;;;;6123920;22;102106;-75
2022/02/27 10:33:09;;;;;;;11.48;9.73;;;7.20;71.70;;;;;;6151736;22;99003;-75
2022/02/27 10:35:42;;;;;;;16.85;15.50;;;7.20;72.30;;;;;;6151239;22;98857;-75
2022/02/27 10:38:14;;;;;;;17.58;14.32;;;7.30;72.50;;;;;;6123786;22;98439;-75
2022/02/27 10:40:47;;;;;;;8.88;4.88;;;7.40;72.40;;;;;;6122683;22;102577;-75
2022/02/27 10:43:17;;;;;;;12.57;8.48;;;7.30;71.50;;;;;;6124535;22;99777;-75
2022/02/27 10:45:44;;;;;;;9.05;7.72;;;7.30;71.60;;;;;;6151115;22;98398;-75
2022/02/27 10:48:15;;;;;;;26.05;23.50;;;7.40;72.30;;;;;;6124553;22;98546;-75
2022/02/27 10:50:44;;;;;;;20.25;18.15;;;7.40;71.50;;;;;;6122942;22;101812;-75
2022/02/27 10:53:15;;;;;;;20.85;15.50;;;7.50;72.70;;;;;;6098412;22;101309;-75
2022/02/27 10:55:42;;;;;;;9.82;7.55;;;7.70;72.30;;;;;;6150339;22;98361;-75
2022/02/27 10:58:10;;;;;;;27.40;22.10;;;7.80;71.40;;;;;;6151645;22;97750;-75
2022/02/27 11:00:37;;;;;;;37.42;31.88;;;7.90;71.70;;;;;;6123113;22;101795;-75
2022/02/27 11:03:06;;;;;;;24.88;18.63;;;7.90;71.40;;;;;;6149987;22;98829;-75
2022/02/27 11:05:35;;;;;;;17.50;13.90;;;7.90;70.90;;;;;;6149897;22;99113;-75
2022/02/27 11:08:08;;;;;;;62.45;45.30;;;8.00;70.60;;;;;;6123046;22;98526;-75
2022/02/27 11:10:41;;;;;;;20.90;14.43;;;8.00;70.40;;;;;;6151405;22;99344;-75
2022/02/27 11:13:10;;;;;;;15.88;12.05;;;8.10;70.30;;;;;;6124451;22;101523;-75
2022/02/27 11:15:38;;;;;;;26.67;19.33;;;8.20;70.90;;;;;;6124661;22;98542;-75
2022/02/27 11:18:07;;;;;;;27.33;19.17;;;8.20;69.80;;;;;;6124468;22;98643;-75
2022/02/27 11:20:35;;;;;;;11.23;4.93;;;8.30;69.70;;;;;;6124360;22;100320;-76
2022/02/27 11:23:02;;;;;;;19.10;10.65;;;8.30;68.30;;;;;;6125013;22;100054;-75
2022/02/27 11:25:29;;;;;;;13.48;8.52;;;8.30;68.70;;;;;;6125371;22;98530;-75
2022/02/27 11:28:05;;;;;;;12.07;5.20;;;8.30;68.80;;;;;;6152323;22;98468;-75
2022/02/27 11:30:35;;;;;;;10.35;5.80;;;8.30;68.60;;;;;;6124667;22;102645;-75
2022/02/27 11:33:18;;;;;;;11.55;8.10;;;8.40;70.10;;;;;;6151700;22;99710;-75
2022/02/27 11:35:56;;;;;;;10.15;4.88;;;8.50;68.40;;;;;;6125862;22;98492;-75
2022/02/27 11:38:29;;;;;;;23.23;20.95;;;8.50;68.20;;;;;;6101089;22;98500;-75
2022/02/27 11:41:18;;;;;;;13.30;10.60;;;8.60;68.60;;;;;;6123986;22;101694;-75
2022/02/27 11:43:54;;;;;;;13.77;8.57;;;8.50;67.40;;;;;;6151099;22;98951;-75
2022/02/27 11:46:41;;;;;;;7.55;4.88;;;8.50;68.20;;;;;;6125613;22;98952;-75
2022/02/27 11:49:25;;;;;;;20.40;16.50;;;8.60;67.00;;;;;;6125838;22;97781;-75
2022/02/27 11:51:59;;;;;;;10.02;4.78;;;8.60;67.80;;;;;;6124570;22;99359;-75
2022/02/27 11:54:36;;;;;;;12.90;6.37;;;8.60;66.60;;;;;;6152168;22;98928;-75
2022/02/27 11:57:19;;;;;;;8.50;5.22;;;8.60;67.90;;;;;;6100310;22;99289;-75
2022/02/27 11:59:56;;;;;;;10.13;5.82;;;8.80;67.70;;;;;;6152479;22;98353;-75
2022/02/27 12:02:26;;;;;;;5.93;4.43;;;8.80;67.00;;;;;;6151880;22;99114;-75
2022/02/27 12:04:55;;;;;;;10.52;4.78;;;8.90;67.50;;;;;;6125261;22;98886;-75
2022/02/27 12:07:22;;;;;;;7.05;4.80;;;8.90;66.90;;;;;;6125240;22;98443;-75
2022/02/27 12:09:52;;;;;;;9.10;5.20;;;9.00;66.80;;;;;;6125509;22;98537;-75
2022/02/27 12:12:37;;;;;;;7.00;4.55;;;9.00;66.70;;;;;;6125335;22;101747;-75
2022/02/27 12:15:24;;;;;;;8.55;4.47;;;9.10;66.50;;;;;;6125126;22;101727;-75
2022/02/27 12:17:57;;;;;;;7.68;4.22;;;9.20;67.40;;;;;;6151594;22;98372;-75
2022/02/27 12:20:50;;;;;;;9.40;4.80;;;9.20;65.50;;;;;;6125441;22;98774;-75
2022/02/27 12:23:31;;;;;;;6.78;4.20;;;9.40;65.20;;;;;;6125469;22;100023;-75
2022/02/27 12:26:01;;;;;;;6.32;4.13;;;9.40;65.10;;;;;;6124480;22;102593;-75
2022/02/27 12:28:49;;;;;;;6.07;3.47;;;9.30;64.70;;;;;;6152099;22;98453;-75
2022/02/27 12:31:35;;;;;;;3.67;3.08;;;9.50;66.10;;;;;;6125262;22;98606;-75
2022/02/27 12:34:16;;;;;;;7.18;3.13;;;9.70;64.10;;;;;;6151434;22;99144;-75
2022/02/27 12:36:47;;;;;;;4.38;3.10;;;9.80;63.90;;;;;;6125386;22;99163;-75
2022/02/27 12:39:15;;;;;;;7.18;3.83;;;9.80;63.20;;;;;;6151948;22;98339;-75
2022/02/27 12:41:48;;;;;;;3.97;3.42;;;9.90;62.90;;;;;;6152593;22;97752;-75
2022/02/27 12:44:40;;;;;;;5.05;2.95;;;10.00;61.40;;;;;;6151460;22;99295;-75
2022/02/27 12:47:13;;;;;;;7.35;3.95;;;10.00;60.30;;;;;;6140594;22;98956;-75
2022/02/27 12:52:40;;;;;;;8.02;3.90;;;9.90;59.40;;;;;;6152166;22;98395;-75
2022/02/27 12:55:16;;;;;;;6.95;4.18;;;9.80;58.90;;;;;;6124980;22;99248;-75